sensor_id;sensor_type;location;lat;lon;timestamp;P1;durP1;ratioP1;P2;durP2;ratioP2
49678;SDS011;35570;48.218;16.326;2023-04-08T00:01:48;26.48;;;23.75;;
49678;SDS011;35570;48.218;16.326;2023-04-08T00:04:14;26.33;;;23.52;;
49678;SDS011;35570;48.218;16.326;2023-04-08T00:06:40;27.48;;;24.65;;
49678;SDS011;35570;48.218;16.326;2023-04-08T00:09:06;25.75;;;23.25;;
49678;SDS011;35570;48.218;16.326;2023-04-08T00:11:31;23.05;;;20.65;;
49678;SDS011;35570;48.218;16.326;2023-04-08T00:13:57;16.42;;;14.73;;
49678;SDS011;35570;48.218;16.326;2023-04-08T00:16:24;17.52;;;15.73;;
49678;SDS011;35570;48.218;16.326;2023-04-08T00:18:50;16.67;;;15.07;;
49678;SDS011;35570;48.218;16.326;2023-04-08T00:21:15;17.65;;;15.85;;
49678;SDS011;35570;48.218;16.326;2023-04-08T00:23:44;17.10;;;15.30;;
49678;SDS011;35570;48.218;16.326;2023-04-08T00:26:10;17.70;;;15.93;;
49678;SDS011;35570;48.218;16.326;2023-04-08T00:28:36;16.42;;;14.73;;
49678;SDS011;35570;48.218;16.326;2023-04-08T00:31:02;16.23;;;14.52;;
49678;SDS011;35570;48.218;16.326;2023-04-08T00:33:27;14.45;;;13.05;;
49678;SDS011;35570;48.218;16.326;2023-04-08T00:35:53;12.20;;;10.88;;
49678;SDS011;35570;48.218;16.326;2023-04-08T00:38:19;11.23;;;10.15;;
49678;SDS011;35570;48.218;16.326;2023-04-08T00:40:45;10.75;;;9.75;;
49678;SDS011;35570;48.218;16.326;2023-04-08T00:43:11;10.35;;;9.35;;
49678;SDS011;35570;48.218;16.326;2023-04-08T00:45:36;8.73;;;7.90;;
49678;SDS011;35570;48.218;16.326;2023-04-08T00:48:03;9.13;;;7.38;;
49678;SDS011;35570;48.218;16.326;2023-04-08T00:50:29;7.65;;;6.85;;
49678;SDS011;35570;48.218;16.326;2023-04-08T00:52:55;7.25;;;6.55;;
49678;SDS011;35570;48.218;16.326;2023-04-08T00:55:20;7.85;;;6.82;;
49678;SDS011;35570;48.218;16.326;2023-04-08T00:57:46;6.82;;;6.22;;
49678;SDS011;35570;48.218;16.326;2023-04-08T01:00:13;7.20;;;6.50;;
49678;SDS011;35570;48.218;16.326;2023-04-08T01:07:59;6.72;;;6.13;;
49678;SDS011;35570;48.218;16.326;2023-04-08T01:10:29;6.78;;;6.18;;
49678;SDS011;35570;48.218;16.326;2023-04-08T01:13:00;7.13;;;5.90;;
49678;SDS011;35570;48.218;16.326;2023-04-08T01:15:29;6.97;;;6.30;;
49678;SDS011;35570;48.218;16.326;2023-04-08T01:17:57;7.03;;;6.30;;
49678;SDS011;35570;48.218;16.326;2023-04-08T01:20:24;6.40;;;5.70;;
49678;SDS011;35570;48.218;16.326;2023-04-08T01:25:31;5.78;;;5.28;;
49678;SDS011;35570;48.218;16.326;2023-04-08T01:27:59;5.75;;;5.25;;
49678;SDS011;35570;48.218;16.326;2023-04-08T01:30:28;6.18;;;5.57;;
49678;SDS011;35570;48.218;16.326;2023-04-08T01:32:54;5.32;;;4.82;;
49678;SDS011;35570;48.218;16.326;2023-04-08T01:35:21;4.97;;;4.57;;
49678;SDS011;35570;48.218;16.326;2023-04-08T01:37:48;5.07;;;4.57;;
49678;SDS011;35570;48.218;16.326;2023-04-08T01:40:15;4.47;;;4.07;;
49678;SDS011;35570;48.218;16.326;2023-04-08T01:42:42;4.32;;;3.92;;
49678;SDS011;35570;48.218;16.326;2023-04-08T01:45:11;4.47;;;4.07;;
49678;SDS011;35570;48.218;16.326;2023-04-08T01:47:38;3.65;;;3.35;;
49678;SDS011;35570;48.218;16.326;2023-04-08T01:50:05;4.07;;;3.67;;
49678;SDS011;35570;48.218;16.326;2023-04-08T01:52:33;3.28;;;2.90;;
49678;SDS011;35570;48.218;16.326;2023-04-08T01:55:01;3.25;;;2.95;;
49678;SDS011;35570;48.218;16.326;2023-04-08T01:57:30;3.63;;;3.33;;
49678;SDS011;35570;48.218;16.326;2023-04-08T02:00:00;3.58;;;3.28;;
49678;SDS011;35570;48.218;16.326;2023-04-08T02:02:30;3.28;;;2.72;;
49678;SDS011;35570;48.218;16.326;2023-04-08T02:04:57;3.60;;;3.30;;
49678;SDS011;35570;48.218;16.326;2023-04-08T02:07:23;3.13;;;2.83;;
49678;SDS011;35570;48.218;16.326;2023-04-08T02:09:49;3.08;;;2.78;;
49678;SDS011;35570;48.218;16.326;2023-04-08T02:12:15;3.15;;;2.50;;
49678;SDS011;35570;48.218;16.326;2023-04-08T02:14:41;3.28;;;2.80;;
49678;SDS011;35570;48.218;16.326;2023-04-08T02:17:15;2.95;;;2.65;;
49678;SDS011;35570;48.218;16.326;2023-04-08T02:20:10;2.63;;;1.92;;
49678;SDS011;35570;48.218;16.326;2023-04-08T02:25:19;2.70;;;2.25;;
49678;SDS011;35570;48.218;16.326;2023-04-08T02:27:47;2.35;;;1.80;;
49678;SDS011;35570;48.218;16.326;2023-04-08T02:30:14;2.20;;;2.00;;
49678;SDS011;35570;48.218;16.326;2023-04-08T02:32:40;2.40;;;2.20;;
49678;SDS011;35570;48.218;16.326;2023-04-08T02:35:07;2.67;;;2.47;;
49678;SDS011;35570;48.218;16.326;2023-04-08T02:37:35;2.22;;;2.03;;
49678;SDS011;35570;48.218;16.326;2023-04-08T02:40:01;3.05;;;2.42;;
49678;SDS011;35570;48.218;16.326;2023-04-08T02:42:27;2.85;;;2.17;;
49678;SDS011;35570;48.218;16.326;2023-04-08T02:44:52;2.60;;;2.40;;
49678;SDS011;35570;48.218;16.326;2023-04-08T02:47:18;2.88;;;2.58;;
49678;SDS011;35570;48.218;16.326;2023-04-08T02:49:43;2.65;;;2.40;;
49678;SDS011;35570;48.218;16.326;2023-04-08T02:52:09;4.05;;;2.70;;
49678;SDS011;35570;48.218;16.326;2023-04-08T02:54:35;2.90;;;2.60;;
49678;SDS011;35570;48.218;16.326;2023-04-08T02:57:00;2.78;;;2.55;;
49678;SDS011;35570;48.218;16.326;2023-04-08T02:59:26;3.42;;;2.80;;
49678;SDS011;35570;48.218;16.326;2023-04-08T03:01:52;2.58;;;2.38;;
49678;SDS011;35570;48.218;16.326;2023-04-08T03:04:17;2.20;;;2.00;;
49678;SDS011;35570;48.218;16.326;2023-04-08T03:06:43;2.25;;;2.05;;
49678;SDS011;35570;48.218;16.326;2023-04-08T03:09:08;2.53;;;1.73;;
49678;SDS011;35570;48.218;16.326;2023-04-08T03:11:34;1.80;;;1.70;;
49678;SDS011;35570;48.218;16.326;2023-04-08T03:14:00;1.17;;;0.98;;
49678;SDS011;35570;48.218;16.326;2023-04-08T03:16:25;1.05;;;0.95;;
49678;SDS011;35570;48.218;16.326;2023-04-08T03:18:51;1.38;;;1.15;;
49678;SDS011;35570;48.218;16.326;2023-04-08T03:21:17;1.90;;;1.23;;
49678;SDS011;35570;48.218;16.326;2023-04-08T03:23:43;1.73;;;1.40;;
49678;SDS011;35570;48.218;16.326;2023-04-08T03:26:09;2.08;;;1.30;;
49678;SDS011;35570;48.218;16.326;2023-04-08T03:28:35;1.40;;;1.30;;
49678;SDS011;35570;48.218;16.326;2023-04-08T03:31:04;2.38;;;1.15;;
49678;SDS011;35570;48.218;16.326;2023-04-08T03:33:29;1.38;;;1.08;;
49678;SDS011;35570;48.218;16.326;2023-04-08T03:35:55;1.48;;;1.05;;
49678;SDS011;35570;48.218;16.326;2023-04-08T03:38:21;1.80;;;1.00;;
49678;SDS011;35570;48.218;16.326;2023-04-08T03:40:47;1.92;;;1.10;;
49678;SDS011;35570;48.218;16.326;2023-04-08T03:43:13;1.20;;;1.05;;
49678;SDS011;35570;48.218;16.326;2023-04-08T03:45:38;1.40;;;1.10;;
49678;SDS011;35570;48.218;16.326;2023-04-08T03:48:04;1.08;;;0.98;;
49678;SDS011;35570;48.218;16.326;2023-04-08T03:50:30;1.73;;;1.20;;
49678;SDS011;35570;48.218;16.326;2023-04-08T03:52:56;1.25;;;1.00;;
49678;SDS011;35570;48.218;16.326;2023-04-08T03:55:21;1.30;;;1.20;;
49678;SDS011;35570;48.218;16.326;2023-04-08T03:57:47;2.25;;;1.45;;
49678;SDS011;35570;48.218;16.326;2023-04-08T04:00:13;1.98;;;1.20;;
49678;SDS011;35570;48.218;16.326;2023-04-08T04:02:39;1.05;;;0.90;;
49678;SDS011;35570;48.218;16.326;2023-04-08T04:05:05;1.13;;;0.93;;
49678;SDS011;35570;48.218;16.326;2023-04-08T04:07:31;1.05;;;0.95;;
49678;SDS011;35570;48.218;16.326;2023-04-08T04:09:56;1.75;;;1.45;;
49678;SDS011;35570;48.218;16.326;2023-04-08T04:12:22;1.15;;;1.02;;
49678;SDS011;35570;48.218;16.326;2023-04-08T04:14:48;1.35;;;1.20;;
49678;SDS011;35570;48.218;16.326;2023-04-08T04:17:14;1.38;;;1.17;;
49678;SDS011;35570;48.218;16.326;2023-04-08T04:19:39;2.20;;;1.35;;
49678;SDS011;35570;48.218;16.326;2023-04-08T04:22:05;1.77;;;1.38;;
49678;SDS011;35570;48.218;16.326;2023-04-08T04:24:31;1.70;;;1.40;;
49678;SDS011;35570;48.218;16.326;2023-04-08T04:26:56;1.38;;;1.27;;
49678;SDS011;35570;48.218;16.326;2023-04-08T04:29:22;2.05;;;1.40;;
49678;SDS011;35570;48.218;16.326;2023-04-08T04:31:48;2.20;;;1.80;;
49678;SDS011;35570;48.218;16.326;2023-04-08T04:34:13;2.10;;;1.70;;
49678;SDS011;35570;48.218;16.326;2023-04-08T04:36:39;2.50;;;2.30;;
49678;SDS011;35570;48.218;16.326;2023-04-08T04:39:04;2.60;;;2.40;;
49678;SDS011;35570;48.218;16.326;2023-04-08T04:41:30;2.40;;;2.20;;
49678;SDS011;35570;48.218;16.326;2023-04-08T04:43:56;2.92;;;2.63;;
49678;SDS011;35570;48.218;16.326;2023-04-08T04:46:21;3.08;;;2.70;;
49678;SDS011;35570;48.218;16.326;2023-04-08T04:48:47;3.00;;;2.70;;
49678;SDS011;35570;48.218;16.326;2023-04-08T04:51:13;3.30;;;2.80;;
49678;SDS011;35570;48.218;16.326;2023-04-08T04:53:38;3.10;;;2.80;;
49678;SDS011;35570;48.218;16.326;2023-04-08T04:56:04;3.30;;;3.00;;
49678;SDS011;35570;48.218;16.326;2023-04-08T04:58:30;3.03;;;2.72;;
49678;SDS011;35570;48.218;16.326;2023-04-08T05:00:56;3.60;;;2.97;;
49678;SDS011;35570;48.218;16.326;2023-04-08T05:03:22;4.00;;;3.40;;
49678;SDS011;35570;48.218;16.326;2023-04-08T05:05:53;3.03;;;2.70;;
49678;SDS011;35570;48.218;16.326;2023-04-08T05:08:19;3.17;;;2.83;;
49678;SDS011;35570;48.218;16.326;2023-04-08T05:10:45;3.28;;;2.97;;
49678;SDS011;35570;48.218;16.326;2023-04-08T05:13:11;3.72;;;2.85;;
49678;SDS011;35570;48.218;16.326;2023-04-08T05:15:37;2.95;;;2.65;;
49678;SDS011;35570;48.218;16.326;2023-04-08T05:18:02;2.55;;;2.35;;
49678;SDS011;35570;48.218;16.326;2023-04-08T05:20:28;2.40;;;2.20;;
49678;SDS011;35570;48.218;16.326;2023-04-08T05:22:54;2.88;;;2.58;;
49678;SDS011;35570;48.218;16.326;2023-04-08T05:25:19;2.08;;;1.90;;
49678;SDS011;35570;48.218;16.326;2023-04-08T05:27:45;2.30;;;2.10;;
49678;SDS011;35570;48.218;16.326;2023-04-08T05:30:11;2.00;;;1.90;;
49678;SDS011;35570;48.218;16.326;2023-04-08T05:32:37;2.00;;;1.80;;
49678;SDS011;35570;48.218;16.326;2023-04-08T05:35:03;2.00;;;1.80;;
49678;SDS011;35570;48.218;16.326;2023-04-08T05:37:29;2.20;;;1.77;;
49678;SDS011;35570;48.218;16.326;2023-04-08T05:39:55;2.00;;;1.80;;
49678;SDS011;35570;48.218;16.326;2023-04-08T05:42:20;1.50;;;1.40;;
49678;SDS011;35570;48.218;16.326;2023-04-08T05:44:46;2.38;;;1.58;;
49678;SDS011;35570;48.218;16.326;2023-04-08T05:47:12;1.70;;;1.60;;
49678;SDS011;35570;48.218;16.326;2023-04-08T05:49:38;1.42;;;1.33;;
49678;SDS011;35570;48.218;16.326;2023-04-08T05:52:04;2.75;;;1.63;;
49678;SDS011;35570;48.218;16.326;2023-04-08T05:54:30;1.65;;;1.55;;
49678;SDS011;35570;48.218;16.326;2023-04-08T05:56:56;1.83;;;1.70;;
49678;SDS011;35570;48.218;16.326;2023-04-08T05:59:22;1.70;;;1.60;;
49678;SDS011;35570;48.218;16.326;2023-04-08T06:01:47;1.73;;;1.63;;
49678;SDS011;35570;48.218;16.326;2023-04-08T06:04:13;1.60;;;1.50;;
49678;SDS011;35570;48.218;16.326;2023-04-08T06:06:39;1.67;;;1.58;;
49678;SDS011;35570;48.218;16.326;2023-04-08T06:09:05;1.73;;;1.60;;
49678;SDS011;35570;48.218;16.326;2023-04-08T06:11:30;1.65;;;1.38;;
49678;SDS011;35570;48.218;16.326;2023-04-08T06:13:56;1.80;;;1.63;;
49678;SDS011;35570;48.218;16.326;2023-04-08T06:16:22;2.15;;;1.95;;
49678;SDS011;35570;48.218;16.326;2023-04-08T06:18:47;2.22;;;2.03;;
49678;SDS011;35570;48.218;16.326;2023-04-08T06:21:13;2.10;;;1.85;;
49678;SDS011;35570;48.218;16.326;2023-04-08T06:23:39;2.28;;;1.42;;
49678;SDS011;35570;48.218;16.326;2023-04-08T06:26:05;1.60;;;1.50;;
49678;SDS011;35570;48.218;16.326;2023-04-08T06:28:31;1.70;;;1.60;;
49678;SDS011;35570;48.218;16.326;2023-04-08T06:30:57;1.58;;;1.30;;
49678;SDS011;35570;48.218;16.326;2023-04-08T06:33:23;1.27;;;1.15;;
49678;SDS011;35570;48.218;16.326;2023-04-08T06:35:49;1.88;;;1.65;;
49678;SDS011;35570;48.218;16.326;2023-04-08T06:38:14;3.65;;;2.50;;
49678;SDS011;35570;48.218;16.326;2023-04-08T06:40:40;3.45;;;2.25;;
49678;SDS011;35570;48.218;16.326;2023-04-08T06:43:06;4.35;;;3.17;;
49678;SDS011;35570;48.218;16.326;2023-04-08T06:45:32;1.95;;;1.70;;
49678;SDS011;35570;48.218;16.326;2023-04-08T06:47:58;1.90;;;1.70;;
49678;SDS011;35570;48.218;16.326;2023-04-08T06:50:24;2.38;;;1.80;;
49678;SDS011;35570;48.218;16.326;2023-04-08T06:52:50;2.33;;;1.70;;
49678;SDS011;35570;48.218;16.326;2023-04-08T06:55:15;1.70;;;1.60;;
49678;SDS011;35570;48.218;16.326;2023-04-08T06:57:41;2.03;;;1.83;;
49678;SDS011;35570;48.218;16.326;2023-04-08T07:00:07;2.38;;;1.98;;
49678;SDS011;35570;48.218;16.326;2023-04-08T07:02:33;2.95;;;2.13;;
49678;SDS011;35570;48.218;16.326;2023-04-08T07:04:59;1.90;;;1.80;;
49678;SDS011;35570;48.218;16.326;2023-04-08T07:07:24;1.40;;;1.30;;
49678;SDS011;35570;48.218;16.326;2023-04-08T07:09:50;2.00;;;1.80;;
49678;SDS011;35570;48.218;16.326;2023-04-08T07:12:16;1.70;;;1.60;;
49678;SDS011;35570;48.218;16.326;2023-04-08T07:14:42;2.20;;;2.00;;
49678;SDS011;35570;48.218;16.326;2023-04-08T07:17:07;2.05;;;1.90;;
49678;SDS011;35570;48.218;16.326;2023-04-08T07:19:33;1.73;;;1.63;;
49678;SDS011;35570;48.218;16.326;2023-04-08T07:21:58;2.90;;;2.60;;
49678;SDS011;35570;48.218;16.326;2023-04-08T07:24:24;3.38;;;2.90;;
49678;SDS011;35570;48.218;16.326;2023-04-08T07:26:51;4.72;;;3.25;;
49678;SDS011;35570;48.218;16.326;2023-04-08T07:29:16;4.03;;;2.95;;
49678;SDS011;35570;48.218;16.326;2023-04-08T07:31:42;2.90;;;2.55;;
49678;SDS011;35570;48.218;16.326;2023-04-08T07:34:08;2.67;;;2.47;;
49678;SDS011;35570;48.218;16.326;2023-04-08T07:36:34;2.38;;;2.17;;
49678;SDS011;35570;48.218;16.326;2023-04-08T07:39:00;2.65;;;2.45;;
49678;SDS011;35570;48.218;16.326;2023-04-08T07:41:26;2.88;;;2.67;;
49678;SDS011;35570;48.218;16.326;2023-04-08T07:43:52;3.42;;;3.13;;
49678;SDS011;35570;48.218;16.326;2023-04-08T07:46:17;3.28;;;2.97;;
49678;SDS011;35570;48.218;16.326;2023-04-08T07:48:44;3.20;;;2.90;;
49678;SDS011;35570;48.218;16.326;2023-04-08T07:51:10;3.42;;;3.10;;
49678;SDS011;35570;48.218;16.326;2023-04-08T07:53:35;3.97;;;3.33;;
49678;SDS011;35570;48.218;16.326;2023-04-08T07:56:01;4.07;;;3.67;;
49678;SDS011;35570;48.218;16.326;2023-04-08T07:58:28;4.97;;;3.97;;
49678;SDS011;35570;48.218;16.326;2023-04-08T08:00:54;4.22;;;3.83;;
49678;SDS011;35570;48.218;16.326;2023-04-08T08:03:21;4.85;;;4.10;;
49678;SDS011;35570;48.218;16.326;2023-04-08T08:05:47;5.03;;;4.05;;
49678;SDS011;35570;48.218;16.326;2023-04-08T08:08:13;4.28;;;3.88;;
49678;SDS011;35570;48.218;16.326;2023-04-08T08:10:38;4.90;;;4.40;;
49678;SDS011;35570;48.218;16.326;2023-04-08T08:13:05;4.53;;;4.13;;
49678;SDS011;35570;48.218;16.326;2023-04-08T08:15:32;4.97;;;4.47;;
49678;SDS011;35570;48.218;16.326;2023-04-08T08:17:57;5.13;;;4.50;;
49678;SDS011;35570;48.218;16.326;2023-04-08T08:20:23;5.18;;;4.70;;
49678;SDS011;35570;48.218;16.326;2023-04-08T08:22:49;6.18;;;5.03;;
49678;SDS011;35570;48.218;16.326;2023-04-08T08:25:15;5.70;;;4.93;;
49678;SDS011;35570;48.218;16.326;2023-04-08T08:27:41;5.90;;;5.03;;
49678;SDS011;35570;48.218;16.326;2023-04-08T08:30:07;6.45;;;5.10;;
49678;SDS011;35570;48.218;16.326;2023-04-08T08:32:34;5.68;;;5.15;;
49678;SDS011;35570;48.218;16.326;2023-04-08T08:35:18;6.00;;;5.38;;
49678;SDS011;35570;48.218;16.326;2023-04-08T08:37:44;6.05;;;5.45;;
49678;SDS011;35570;48.218;16.326;2023-04-08T08:40:10;6.20;;;5.43;;
49678;SDS011;35570;48.218;16.326;2023-04-08T08:42:36;6.05;;;5.45;;
49678;SDS011;35570;48.218;16.326;2023-04-08T08:45:03;7.25;;;6.13;;
49678;SDS011;35570;48.218;16.326;2023-04-08T08:47:29;6.05;;;5.40;;
49678;SDS011;35570;48.218;16.326;2023-04-08T08:49:55;6.45;;;5.85;;
49678;SDS011;35570;48.218;16.326;2023-04-08T08:52:21;10.10;;;6.60;;
49678;SDS011;35570;48.218;16.326;2023-04-08T08:54:46;6.80;;;6.10;;
49678;SDS011;35570;48.218;16.326;2023-04-08T08:57:19;6.28;;;5.68;;
49678;SDS011;35570;48.218;16.326;2023-04-08T08:59:47;5.85;;;5.25;;
49678;SDS011;35570;48.218;16.326;2023-04-08T09:02:23;5.72;;;5.10;;
49678;SDS011;35570;48.218;16.326;2023-04-08T09:05:00;6.65;;;5.82;;
49678;SDS011;35570;48.218;16.326;2023-04-08T09:07:28;5.85;;;5.28;;
49678;SDS011;35570;48.218;16.326;2023-04-08T09:09:55;6.70;;;5.82;;
49678;SDS011;35570;48.218;16.326;2023-04-08T09:12:23;6.88;;;6.18;;
49678;SDS011;35570;48.218;16.326;2023-04-08T09:14:51;6.43;;;5.65;;
49678;SDS011;35570;48.218;16.326;2023-04-08T09:17:32;6.15;;;5.55;;
49678;SDS011;35570;48.218;16.326;2023-04-08T09:20:02;5.72;;;5.22;;
49678;SDS011;35570;48.218;16.326;2023-04-08T09:22:58;6.45;;;5.72;;
49678;SDS011;35570;48.218;16.326;2023-04-08T09:25:26;5.72;;;5.20;;
49678;SDS011;35570;48.218;16.326;2023-04-08T09:27:56;6.22;;;5.63;;
49678;SDS011;35570;48.218;16.326;2023-04-08T09:30:23;5.90;;;5.30;;
49678;SDS011;35570;48.218;16.326;2023-04-08T09:32:50;5.70;;;5.10;;
49678;SDS011;35570;48.218;16.326;2023-04-08T09:35:23;6.68;;;5.72;;
49678;SDS011;35570;48.218;16.326;2023-04-08T09:37:50;7.38;;;6.68;;
49678;SDS011;35570;48.218;16.326;2023-04-08T09:40:16;7.85;;;7.03;;
49678;SDS011;35570;48.218;16.326;2023-04-08T09:42:45;9.15;;;7.43;;
49678;SDS011;35570;48.218;16.326;2023-04-08T09:45:16;9.38;;;6.82;;
49678;SDS011;35570;48.218;16.326;2023-04-08T09:48:28;8.88;;;7.05;;
49678;SDS011;35570;48.218;16.326;2023-04-08T09:50:35;8.10;;;7.10;;
49678;SDS011;35570;48.218;16.326;2023-04-08T09:53:10;8.90;;;7.03;;
49678;SDS011;35570;48.218;16.326;2023-04-08T09:55:42;9.05;;;6.93;;
49678;SDS011;35570;48.218;16.326;2023-04-08T09:58:33;8.32;;;7.10;;
49678;SDS011;35570;48.218;16.326;2023-04-08T10:01:03;10.45;;;7.75;;
49678;SDS011;35570;48.218;16.326;2023-04-08T10:05:56;10.75;;;8.00;;
49678;SDS011;35570;48.218;16.326;2023-04-08T10:08:25;9.82;;;7.88;;
49678;SDS011;35570;48.218;16.326;2023-04-08T10:10:51;8.77;;;7.30;;
49678;SDS011;35570;48.218;16.326;2023-04-08T10:13:18;8.45;;;7.38;;
49678;SDS011;35570;48.218;16.326;2023-04-08T10:15:45;9.15;;;7.57;;
49678;SDS011;35570;48.218;16.326;2023-04-08T10:20:44;9.05;;;7.43;;
49678;SDS011;35570;48.218;16.326;2023-04-08T10:23:11;8.93;;;7.13;;
49678;SDS011;35570;48.218;16.326;2023-04-08T10:31:15;9.73;;;6.43;;
49678;SDS011;35570;48.218;16.326;2023-04-08T10:33:45;9.32;;;7.00;;
49678;SDS011;35570;48.218;16.326;2023-04-08T10:36:11;9.63;;;6.50;;
49678;SDS011;35570;48.218;16.326;2023-04-08T10:38:39;9.75;;;7.32;;
49678;SDS011;35570;48.218;16.326;2023-04-08T10:41:06;8.85;;;6.82;;
49678;SDS011;35570;48.218;16.326;2023-04-08T10:43:34;8.30;;;7.18;;
49678;SDS011;35570;48.218;16.326;2023-04-08T10:46:00;11.88;;;8.38;;
49678;SDS011;35570;48.218;16.326;2023-04-08T10:48:28;10.52;;;7.65;;
49678;SDS011;35570;48.218;16.326;2023-04-08T10:50:58;12.30;;;8.27;;
49678;SDS011;35570;48.218;16.326;2023-04-08T10:55:52;9.90;;;7.93;;
49678;SDS011;35570;48.218;16.326;2023-04-08T10:58:18;10.70;;;8.27;;
49678;SDS011;35570;48.218;16.326;2023-04-08T11:00:44;10.30;;;8.73;;
49678;SDS011;35570;48.218;16.326;2023-04-08T11:03:10;10.45;;;7.97;;
49678;SDS011;35570;48.218;16.326;2023-04-08T11:05:36;9.75;;;8.02;;
49678;SDS011;35570;48.218;16.326;2023-04-08T11:08:03;10.90;;;8.68;;
49678;SDS011;35570;48.218;16.326;2023-04-08T11:10:30;12.25;;;8.68;;
49678;SDS011;35570;48.218;16.326;2023-04-08T11:13:00;9.80;;;8.38;;
49678;SDS011;35570;48.218;16.326;2023-04-08T11:15:28;10.70;;;9.15;;
49678;SDS011;35570;48.218;16.326;2023-04-08T11:17:55;13.02;;;9.65;;
49678;SDS011;35570;48.218;16.326;2023-04-08T11:20:21;12.82;;;11.43;;
49678;SDS011;35570;48.218;16.326;2023-04-08T11:22:47;15.38;;;11.52;;
49678;SDS011;35570;48.218;16.326;2023-04-08T11:25:12;13.82;;;11.07;;
49678;SDS011;35570;48.218;16.326;2023-04-08T11:27:38;13.60;;;11.10;;
49678;SDS011;35570;48.218;16.326;2023-04-08T11:30:05;14.25;;;12.20;;
49678;SDS011;35570;48.218;16.326;2023-04-08T11:32:33;14.98;;;11.27;;
49678;SDS011;35570;48.218;16.326;2023-04-08T11:35:00;14.15;;;12.13;;
49678;SDS011;35570;48.218;16.326;2023-04-08T11:37:46;12.93;;;11.23;;
49678;SDS011;35570;48.218;16.326;2023-04-08T11:40:18;13.50;;;11.00;;
49678;SDS011;35570;48.218;16.326;2023-04-08T11:42:44;14.88;;;11.05;;
49678;SDS011;35570;48.218;16.326;2023-04-08T11:45:11;11.73;;;10.38;;
49678;SDS011;35570;48.218;16.326;2023-04-08T11:47:38;12.85;;;11.00;;
49678;SDS011;35570;48.218;16.326;2023-04-08T11:50:04;15.32;;;11.70;;
49678;SDS011;35570;48.218;16.326;2023-04-08T11:55:23;13.77;;;12.15;;
49678;SDS011;35570;48.218;16.326;2023-04-08T11:57:50;13.55;;;11.27;;
49678;SDS011;35570;48.218;16.326;2023-04-08T12:00:16;13.07;;;11.68;;
49678;SDS011;35570;48.218;16.326;2023-04-08T12:02:43;12.95;;;11.48;;
49678;SDS011;35570;48.218;16.326;2023-04-08T12:05:10;12.40;;;10.48;;
49678;SDS011;35570;48.218;16.326;2023-04-08T12:07:35;13.82;;;10.80;;
49678;SDS011;35570;48.218;16.326;2023-04-08T12:10:02;13.30;;;10.85;;
49678;SDS011;35570;48.218;16.326;2023-04-08T12:12:28;12.48;;;10.80;;
49678;SDS011;35570;48.218;16.326;2023-04-08T12:14:53;13.75;;;11.15;;
49678;SDS011;35570;48.218;16.326;2023-04-08T12:17:19;12.52;;;10.52;;
49678;SDS011;35570;48.218;16.326;2023-04-08T12:19:44;14.40;;;10.70;;
49678;SDS011;35570;48.218;16.326;2023-04-08T12:22:10;11.90;;;9.95;;
49678;SDS011;35570;48.218;16.326;2023-04-08T12:24:36;13.15;;;11.60;;
49678;SDS011;35570;48.218;16.326;2023-04-08T12:27:02;14.40;;;11.38;;
49678;SDS011;35570;48.218;16.326;2023-04-08T12:29:29;11.13;;;9.90;;
49678;SDS011;35570;48.218;16.326;2023-04-08T12:31:54;12.73;;;11.30;;
49678;SDS011;35570;48.218;16.326;2023-04-08T12:34:21;12.90;;;10.93;;
49678;SDS011;35570;48.218;16.326;2023-04-08T12:36:46;13.73;;;10.68;;
49678;SDS011;35570;48.218;16.326;2023-04-08T12:39:13;11.88;;;10.15;;
49678;SDS011;35570;48.218;16.326;2023-04-08T12:41:39;12.43;;;10.13;;
49678;SDS011;35570;48.218;16.326;2023-04-08T12:44:05;10.88;;;9.73;;
49678;SDS011;35570;48.218;16.326;2023-04-08T12:46:30;10.15;;;8.52;;
49678;SDS011;35570;48.218;16.326;2023-04-08T12:48:56;10.82;;;9.32;;
49678;SDS011;35570;48.218;16.326;2023-04-08T12:51:22;10.65;;;9.20;;
49678;SDS011;35570;48.218;16.326;2023-04-08T12:53:50;10.77;;;9.02;;
49678;SDS011;35570;48.218;16.326;2023-04-08T12:56:16;9.70;;;8.70;;
49678;SDS011;35570;48.218;16.326;2023-04-08T12:58:41;8.52;;;7.72;;
49678;SDS011;35570;48.218;16.326;2023-04-08T13:01:07;9.75;;;8.70;;
49678;SDS011;35570;48.218;16.326;2023-04-08T13:03:33;10.38;;;8.30;;
49678;SDS011;35570;48.218;16.326;2023-04-08T13:06:00;9.98;;;8.70;;
49678;SDS011;35570;48.218;16.326;2023-04-08T13:08:25;11.75;;;8.32;;
49678;SDS011;35570;48.218;16.326;2023-04-08T13:10:51;9.30;;;7.97;;
49678;SDS011;35570;48.218;16.326;2023-04-08T13:13:18;9.95;;;7.80;;
49678;SDS011;35570;48.218;16.326;2023-04-08T13:15:44;9.48;;;8.48;;
49678;SDS011;35570;48.218;16.326;2023-04-08T13:18:09;8.02;;;7.22;;
49678;SDS011;35570;48.218;16.326;2023-04-08T13:20:35;10.65;;;7.65;;
49678;SDS011;35570;48.218;16.326;2023-04-08T13:23:01;8.73;;;7.82;;
49678;SDS011;35570;48.218;16.326;2023-04-08T13:25:26;8.85;;;7.88;;
49678;SDS011;35570;48.218;16.326;2023-04-08T13:27:52;10.25;;;8.35;;
49678;SDS011;35570;48.218;16.326;2023-04-08T13:30:18;9.45;;;7.43;;
49678;SDS011;35570;48.218;16.326;2023-04-08T13:32:43;8.48;;;7.38;;
49678;SDS011;35570;48.218;16.326;2023-04-08T13:35:09;8.60;;;7.47;;
49678;SDS011;35570;48.218;16.326;2023-04-08T13:37:35;10.35;;;8.00;;
49678;SDS011;35570;48.218;16.326;2023-04-08T13:40:01;8.15;;;7.20;;
49678;SDS011;35570;48.218;16.326;2023-04-08T13:42:27;15.95;;;12.10;;
49678;SDS011;35570;48.218;16.326;2023-04-08T13:44:55;10.75;;;9.43;;
49678;SDS011;35570;48.218;16.326;2023-04-08T13:47:21;9.68;;;7.35;;
49678;SDS011;35570;48.218;16.326;2023-04-08T13:49:47;6.97;;;6.20;;
49678;SDS011;35570;48.218;16.326;2023-04-08T13:52:12;6.13;;;5.50;;
49678;SDS011;35570;48.218;16.326;2023-04-08T13:54:38;7.18;;;6.15;;
49678;SDS011;35570;48.218;16.326;2023-04-08T13:57:04;6.80;;;6.18;;
49678;SDS011;35570;48.218;16.326;2023-04-08T13:59:29;7.63;;;6.90;;
49678;SDS011;35570;48.218;16.326;2023-04-08T14:01:55;9.45;;;8.45;;
49678;SDS011;35570;48.218;16.326;2023-04-08T14:04:21;7.50;;;6.70;;
49678;SDS011;35570;48.218;16.326;2023-04-08T14:06:47;8.25;;;7.30;;
49678;SDS011;35570;48.218;16.326;2023-04-08T14:09:15;7.75;;;6.35;;
49678;SDS011;35570;48.218;16.326;2023-04-08T14:11:41;7.22;;;6.50;;
49678;SDS011;35570;48.218;16.326;2023-04-08T14:14:07;6.45;;;5.43;;
49678;SDS011;35570;48.218;16.326;2023-04-08T14:16:33;6.10;;;5.40;;
49678;SDS011;35570;48.218;16.326;2023-04-08T14:19:00;6.15;;;5.53;;
49678;SDS011;35570;48.218;16.326;2023-04-08T14:21:26;5.63;;;5.13;;
49678;SDS011;35570;48.218;16.326;2023-04-08T14:23:51;7.43;;;5.60;;
49678;SDS011;35570;48.218;16.326;2023-04-08T14:26:17;6.22;;;5.55;;
49678;SDS011;35570;48.218;16.326;2023-04-08T14:28:43;8.15;;;5.40;;
49678;SDS011;35570;48.218;16.326;2023-04-08T14:31:08;5.80;;;5.13;;
49678;SDS011;35570;48.218;16.326;2023-04-08T14:33:34;6.72;;;5.95;;
49678;SDS011;35570;48.218;16.326;2023-04-08T14:36:00;5.75;;;5.25;;
49678;SDS011;35570;48.218;16.326;2023-04-08T14:38:26;6.85;;;6.00;;
49678;SDS011;35570;48.218;16.326;2023-04-08T14:40:51;6.28;;;5.47;;
49678;SDS011;35570;48.218;16.326;2023-04-08T14:43:18;6.60;;;5.75;;
49678;SDS011;35570;48.218;16.326;2023-04-08T14:45:44;5.32;;;4.72;;
49678;SDS011;35570;48.218;16.326;2023-04-08T14:48:10;5.95;;;5.35;;
49678;SDS011;35570;48.218;16.326;2023-04-08T14:50:35;6.18;;;5.57;;
49678;SDS011;35570;48.218;16.326;2023-04-08T14:53:01;5.80;;;5.20;;
49678;SDS011;35570;48.218;16.326;2023-04-08T14:55:27;5.75;;;5.15;;